createdAt,value
2019-03-08T00:01:54.522Z,8.70
2019-03-08T00:04:24.885Z,8.60
2019-03-08T00:06:55.377Z,8.60
2019-03-08T00:09:25.819Z,8.50
2019-03-08T00:11:56.161Z,8.40
2019-03-08T00:14:26.466Z,8.20
2019-03-08T00:16:56.762Z,8.10
2019-03-08T00:19:27.030Z,7.90
2019-03-08T00:22:16.294Z,7.80
2019-03-08T00:24:46.846Z,7.60
2019-03-08T00:27:17.130Z,7.40
2019-03-08T00:29:47.435Z,7.30
2019-03-08T00:32:17.807Z,7.30
2019-03-08T00:34:48.133Z,7.10
2019-03-08T00:37:18.942Z,7.10
2019-03-08T00:39:49.252Z,7.00
2019-03-08T00:42:19.553Z,6.90
2019-03-08T00:44:49.813Z,7.20
2019-03-08T00:47:20.133Z,6.80
2019-03-08T00:49:50.460Z,6.60
2019-03-08T00:52:20.786Z,6.60
2019-03-08T00:54:51.090Z,6.60
2019-03-08T00:57:21.400Z,6.50
2019-03-08T00:59:51.722Z,6.40
2019-03-08T01:02:22.103Z,6.40
2019-03-08T01:04:52.393Z,6.40
2019-03-08T01:07:22.762Z,6.40
2019-03-08T01:09:53.117Z,6.50
2019-03-08T01:12:23.568Z,6.40
2019-03-08T01:14:53.838Z,6.30
2019-03-08T01:17:24.354Z,6.20
2019-03-08T01:19:54.753Z,6.20
2019-03-08T01:22:25.057Z,6.20
2019-03-08T01:24:55.310Z,6.20
2019-03-08T01:27:25.607Z,6.00
2019-03-08T01:29:56.070Z,5.90
2019-03-08T01:32:26.381Z,6.00
2019-03-08T01:34:56.641Z,6.10
2019-03-08T01:37:26.928Z,6.40
2019-03-08T01:39:57.230Z,6.30
2019-03-08T01:42:28.100Z,6.40
2019-03-08T01:44:58.385Z,6.50
2019-03-08T01:47:28.718Z,6.50
2019-03-08T01:49:59.013Z,6.70
2019-03-08T01:55:17.659Z,6.20
2019-03-08T01:57:47.966Z,6.10
2019-03-08T02:00:20.427Z,5.90
2019-03-08T02:02:51.098Z,5.80
2019-03-08T02:05:23.211Z,5.80
2019-03-08T02:07:53.581Z,5.90
2019-03-08T02:10:23.908Z,5.80
2019-03-08T02:12:54.136Z,5.80
2019-03-08T02:15:24.419Z,5.90
2019-03-08T02:17:54.940Z,5.70
2019-03-08T02:20:25.305Z,6.30
2019-03-08T02:22:55.605Z,5.80
2019-03-08T02:25:25.892Z,5.90
2019-03-08T02:27:56.187Z,6.10
2019-03-08T02:30:26.819Z,6.20
2019-03-08T02:32:57.063Z,6.20
2019-03-08T02:35:27.316Z,6.30
2019-03-08T02:37:57.638Z,6.40
2019-03-08T02:40:35.314Z,6.40
2019-03-08T02:43:10.641Z,6.60
2019-03-08T02:45:41.153Z,6.40
2019-03-08T02:48:11.565Z,6.60
2019-03-08T02:50:41.970Z,6.50
2019-03-08T02:53:12.265Z,6.70
2019-03-08T02:55:42.677Z,6.40
2019-03-08T02:58:13.136Z,6.50
2019-03-08T03:00:45.785Z,6.60
2019-03-08T03:03:16.018Z,6.50
2019-03-08T03:05:46.416Z,6.40
2019-03-08T03:08:16.683Z,6.50
2019-03-08T03:10:46.949Z,6.40
2019-03-08T03:13:17.249Z,6.70
2019-03-08T03:15:47.529Z,6.90
2019-03-08T03:18:17.816Z,7.10
2019-03-08T03:20:48.072Z,7.20
2019-03-08T03:23:18.343Z,7.30
2019-03-08T03:25:48.604Z,7.30
2019-03-08T03:28:18.927Z,7.40
2019-03-08T03:30:49.242Z,7.40
2019-03-08T03:33:19.558Z,7.30
2019-03-08T03:35:49.816Z,7.30
2019-03-08T03:38:20.121Z,6.90
2019-03-08T03:40:50.513Z,6.90
2019-03-08T03:43:20.778Z,6.90
2019-03-08T03:45:51.259Z,6.70
2019-03-08T03:48:21.546Z,6.60
2019-03-08T03:50:51.850Z,6.40
2019-03-08T03:56:10.985Z,6.30
2019-03-08T03:58:41.235Z,6.20
2019-03-08T04:01:24.475Z,6.00
2019-03-08T04:03:54.761Z,6.00
2019-03-08T04:06:25.122Z,5.80
2019-03-08T04:08:55.392Z,5.70
2019-03-08T04:11:25.649Z,5.50
2019-03-08T04:13:55.938Z,5.40
2019-03-08T04:16:26.177Z,5.30
2019-03-08T04:18:56.761Z,5.40
2019-03-08T04:21:27.016Z,5.20
2019-03-08T04:23:57.288Z,5.20
2019-03-08T04:26:27.678Z,5.10
2019-03-08T04:28:57.961Z,5.00
2019-03-08T04:31:28.221Z,5.00
2019-03-08T04:33:58.527Z,4.90
2019-03-08T04:36:30.265Z,4.80
2019-03-08T04:39:00.678Z,4.80
2019-03-08T04:41:30.947Z,4.80
2019-03-08T04:44:01.226Z,4.70
2019-03-08T04:46:33.209Z,4.90
2019-03-08T04:49:03.462Z,4.60
2019-03-08T04:51:33.740Z,4.60
2019-03-08T04:54:04.010Z,4.70
2019-03-08T04:56:34.285Z,4.50
2019-03-08T04:59:04.541Z,4.60
2019-03-08T05:01:34.830Z,4.50
2019-03-08T05:04:05.184Z,4.50
2019-03-08T05:06:35.465Z,4.40
2019-03-08T05:09:07.064Z,4.60
2019-03-08T05:11:37.339Z,4.60
2019-03-08T05:14:07.621Z,4.60
2019-03-08T05:16:37.868Z,4.60
2019-03-08T05:19:08.155Z,4.60
2019-03-08T05:21:38.421Z,4.50
2019-03-08T05:24:09.002Z,4.50
2019-03-08T05:26:39.262Z,4.50
2019-03-08T05:29:09.581Z,4.60
2019-03-08T05:31:39.776Z,4.60
2019-03-08T05:34:10.133Z,4.80
2019-03-08T05:36:40.678Z,5.10
2019-03-08T05:39:12.457Z,5.30
2019-03-08T05:41:42.713Z,5.80
2019-03-08T05:44:13.003Z,5.90
2019-03-08T05:46:43.279Z,6.00
2019-03-08T05:49:13.564Z,6.40
2019-03-08T05:51:43.841Z,6.50
2019-03-08T05:54:14.129Z,6.30
2019-03-08T05:56:44.430Z,6.40
2019-03-08T05:59:14.728Z,6.30
2019-03-08T06:01:45.162Z,6.50
2019-03-08T06:04:15.725Z,6.70
2019-03-08T06:06:45.993Z,7.00
2019-03-08T06:09:16.665Z,7.00
2019-03-08T06:11:46.924Z,7.10
2019-03-08T06:14:17.261Z,7.10
2019-03-08T06:16:47.948Z,7.00
2019-03-08T06:19:18.234Z,7.00
2019-03-08T06:21:48.515Z,7.10
2019-03-08T06:24:18.803Z,7.10
2019-03-08T06:26:49.102Z,7.10
2019-03-08T06:29:19.574Z,7.10
2019-03-08T06:31:50.154Z,7.10
2019-03-08T06:34:20.565Z,7.20
2019-03-08T06:36:50.853Z,7.30
2019-03-08T06:39:21.215Z,7.40
2019-03-08T06:41:51.494Z,7.50
2019-03-08T06:44:21.975Z,7.50
2019-03-08T06:46:52.221Z,7.70
2019-03-08T06:49:22.512Z,7.80
2019-03-08T06:51:52.762Z,7.80
2019-03-08T06:54:23.029Z,7.90
2019-03-08T06:56:53.293Z,8.00
2019-03-08T06:59:45.228Z,8.10
2019-03-08T07:02:16.966Z,8.10
2019-03-08T07:04:47.251Z,8.20
2019-03-08T07:07:17.746Z,8.20
2019-03-08T07:09:47.966Z,8.30
2019-03-08T07:12:18.226Z,8.30
2019-03-08T07:14:48.509Z,8.40
2019-03-08T07:17:20.516Z,8.50
2019-03-08T07:19:58.749Z,8.60
2019-03-08T07:22:46.724Z,8.60
2019-03-08T07:25:34.790Z,8.60
2019-03-08T07:28:26.783Z,8.70
2019-03-08T07:31:10.060Z,8.70
2019-03-08T07:33:59.493Z,8.90
2019-03-08T07:37:03.660Z,8.90
2019-03-08T07:39:48.068Z,9.00
2019-03-08T07:42:39.987Z,9.10
2019-03-08T07:45:41.314Z,9.10
2019-03-08T07:48:29.813Z,9.20
2019-03-08T07:51:17.833Z,9.30
2019-03-08T07:53:54.990Z,9.40
2019-03-08T07:56:40.317Z,9.50
2019-03-08T07:59:27.912Z,9.50
2019-03-08T08:02:17.052Z,9.70
2019-03-08T08:05:15.838Z,9.70
2019-03-08T08:08:01.637Z,9.80
2019-03-08T08:10:45.585Z,9.90
2019-03-08T08:13:37.476Z,9.90
2019-03-08T08:16:35.478Z,10.00
2019-03-08T08:19:30.557Z,10.00
2019-03-08T08:22:22.674Z,10.00
2019-03-08T08:25:11.459Z,10.10
2019-03-08T08:27:56.096Z,10.20
2019-03-08T08:30:54.152Z,10.20
2019-03-08T08:33:52.297Z,10.30
2019-03-08T08:36:29.690Z,10.30
2019-03-08T08:39:13.929Z,10.30
2019-03-08T08:42:03.093Z,10.40
2019-03-08T08:44:55.262Z,10.40
2019-03-08T08:47:44.458Z,10.50
2019-03-08T08:50:35.567Z,10.60
2019-03-08T08:53:33.355Z,10.60
2019-03-08T08:56:11.890Z,10.60
2019-03-08T08:59:04.151Z,10.70
2019-03-08T09:01:46.520Z,10.90
2019-03-08T09:04:47.544Z,11.00
2019-03-08T09:07:40.137Z,11.00
2019-03-08T09:10:44.922Z,11.00
2019-03-08T09:13:30.005Z,11.20
2019-03-08T09:16:19.154Z,11.30
2019-03-08T09:18:55.797Z,11.60
2019-03-08T09:21:48.041Z,12.20
2019-03-08T09:24:43.282Z,12.40
2019-03-08T09:27:24.621Z,12.60
2019-03-08T09:30:12.418Z,12.80
2019-03-08T09:32:58.926Z,12.70
2019-03-08T09:35:57.961Z,12.80
2019-03-08T09:38:45.431Z,13.00
2019-03-08T09:41:37.369Z,12.70
2019-03-08T09:44:25.053Z,12.80
2019-03-08T09:47:04.198Z,12.90
2019-03-08T09:49:47.074Z,12.70
2019-03-08T09:52:24.880Z,12.70
2019-03-08T09:55:12.846Z,12.60
2019-03-08T09:58:00.573Z,12.40
2019-03-08T10:01:02.130Z,12.60
2019-03-08T10:03:54.022Z,12.40
2019-03-08T10:06:49.401Z,12.50
2019-03-08T10:09:47.885Z,12.60
2019-03-08T10:12:43.110Z,12.90
2019-03-08T10:15:32.447Z,13.10
2019-03-08T10:18:20.420Z,13.50
2019-03-08T10:21:18.633Z,13.50
2019-03-08T10:24:03.601Z,13.20
2019-03-08T10:26:49.317Z,13.20
2019-03-08T10:29:46.344Z,13.20
2019-03-08T10:32:24.664Z,13.20
2019-03-08T10:35:23.265Z,13.30
2019-03-08T10:38:03.172Z,13.60
2019-03-08T10:40:51.276Z,13.90
2019-03-08T10:43:28.647Z,14.00
2019-03-08T10:46:17.790Z,14.20
2019-03-08T10:49:09.169Z,13.70
2019-03-08T10:52:04.231Z,13.10
2019-03-08T10:54:58.480Z,13.20
2019-03-08T10:57:44.168Z,13.20
2019-03-08T11:00:36.450Z,13.10
2019-03-08T11:03:24.144Z,13.20
2019-03-08T11:06:28.596Z,13.10
2019-03-08T11:09:17.784Z,13.20
2019-03-08T11:12:16.290Z,12.80
2019-03-08T11:15:03.990Z,12.80
2019-03-08T11:17:50.729Z,13.40
2019-03-08T11:20:29.928Z,14.00
2019-03-08T11:23:37.415Z,14.30
2019-03-08T11:26:22.349Z,14.60
2019-03-08T11:29:23.002Z,14.70
2019-03-08T11:32:10.835Z,14.40
2019-03-08T11:34:52.363Z,14.30
2019-03-08T11:37:45.258Z,14.50
2019-03-08T11:40:35.581Z,14.10
2019-03-08T11:43:23.366Z,13.90
2019-03-08T11:46:08.794Z,13.50
2019-03-08T11:49:06.770Z,13.20
2019-03-08T11:51:48.138Z,13.00
2019-03-08T11:54:40.554Z,12.90
2019-03-08T11:57:27.503Z,12.60
2019-03-08T12:00:19.737Z,12.50
2019-03-08T12:03:15.142Z,12.50
2019-03-08T12:06:16.186Z,12.30
2019-03-08T12:09:05.294Z,12.40
2019-03-08T12:11:57.721Z,12.40
2019-03-08T12:14:43.810Z,12.40
2019-03-08T12:17:31.530Z,12.20
2019-03-08T12:20:07.752Z,12.40
2019-03-08T12:23:03.045Z,12.50
2019-03-08T12:25:55.053Z,12.60
2019-03-08T12:28:44.518Z,12.70
2019-03-08T12:31:32.761Z,12.70
2019-03-08T12:34:29.745Z,12.60
2019-03-08T12:37:28.029Z,12.50
2019-03-08T12:40:29.349Z,12.40
2019-03-08T12:43:24.817Z,12.30
2019-03-08T12:46:05.233Z,12.30
2019-03-08T12:49:00.621Z,12.20
2019-03-08T12:51:43.898Z,12.10
2019-03-08T12:54:33.148Z,11.90
2019-03-08T12:57:40.736Z,11.80
2019-03-08T13:00:34.936Z,11.60
2019-03-08T13:03:36.400Z,11.50
2019-03-08T13:06:14.883Z,11.50
2019-03-08T13:09:06.864Z,11.60
2019-03-08T13:11:37.558Z,11.40
2019-03-08T13:14:07.894Z,11.40
2019-03-08T13:16:38.161Z,11.40
2019-03-08T13:19:08.463Z,11.50
2019-03-08T13:21:38.760Z,11.50
2019-03-08T13:24:09.056Z,11.50
2019-03-08T13:26:39.311Z,11.50
2019-03-08T13:29:09.587Z,11.50
2019-03-08T13:31:39.962Z,11.60
2019-03-08T13:34:10.221Z,11.50
2019-03-08T13:36:40.482Z,11.50
2019-03-08T13:39:10.762Z,11.50
2019-03-08T13:41:41.168Z,11.50
2019-03-08T13:44:11.456Z,11.60
2019-03-08T13:46:41.766Z,11.60
2019-03-08T13:49:12.127Z,11.70
2019-03-08T13:51:42.635Z,11.60
2019-03-08T13:54:12.993Z,11.70
2019-03-08T13:56:43.313Z,11.80
2019-03-08T13:59:13.586Z,11.60
2019-03-08T14:01:43.918Z,11.60
2019-03-08T14:04:14.474Z,11.50
2019-03-08T14:06:44.822Z,11.50
2019-03-08T14:09:15.530Z,11.50
2019-03-08T14:11:46.006Z,11.60
2019-03-08T14:14:16.344Z,11.70
2019-03-08T14:16:46.940Z,11.70
2019-03-08T14:19:17.181Z,11.70
2019-03-08T14:21:47.484Z,11.70
2019-03-08T14:24:17.746Z,11.70
2019-03-08T14:26:47.985Z,11.60
2019-03-08T14:29:18.923Z,11.60
2019-03-08T14:31:59.439Z,11.50
2019-03-08T14:34:29.829Z,11.40
2019-03-08T14:37:00.083Z,11.30
2019-03-08T14:39:31.836Z,11.10
2019-03-08T14:42:33.001Z,11.00
2019-03-08T14:45:40.402Z,11.10
2019-03-08T14:48:10.982Z,11.10
2019-03-08T14:50:41.468Z,11.20
2019-03-08T14:53:11.703Z,11.30
2019-03-08T14:55:42.010Z,11.20
2019-03-08T14:58:12.405Z,11.20
2019-03-08T15:00:42.809Z,11.30
2019-03-08T15:03:13.137Z,11.20
2019-03-08T15:05:43.553Z,11.20
2019-03-08T15:08:17.846Z,11.00
2019-03-08T15:10:47.227Z,11.00
2019-03-08T15:13:20.075Z,10.90
2019-03-08T15:15:49.753Z,10.80
2019-03-08T15:18:20.160Z,10.70
2019-03-08T15:20:50.522Z,10.70
2019-03-08T15:23:20.871Z,10.60
2019-03-08T15:25:51.142Z,10.70
2019-03-08T15:28:21.436Z,10.70
2019-03-08T15:30:51.774Z,10.70
2019-03-08T15:33:22.086Z,10.70
2019-03-08T15:35:52.398Z,10.70
2019-03-08T15:38:22.709Z,10.70
2019-03-08T15:40:53.284Z,10.70
2019-03-08T15:43:23.654Z,10.50
2019-03-08T15:45:53.961Z,10.40
2019-03-08T15:48:24.438Z,10.50
2019-03-08T15:50:54.729Z,10.40
2019-03-08T15:53:25.032Z,10.20
2019-03-08T15:55:55.333Z,10.10
2019-03-08T15:58:25.616Z,9.90
2019-03-08T16:00:55.917Z,9.80
2019-03-08T16:03:45.134Z,9.80
2019-03-08T16:06:15.566Z,9.70
2019-03-08T16:08:45.864Z,9.80
2019-03-08T16:11:16.161Z,9.80
2019-03-08T16:13:46.429Z,9.70
2019-03-08T16:16:17.113Z,9.70
2019-03-08T16:18:48.257Z,9.70
2019-03-08T16:21:18.817Z,9.70
2019-03-08T16:23:49.295Z,9.70
2019-03-08T16:26:21.380Z,9.70
2019-03-08T16:28:52.674Z,9.70
2019-03-08T16:31:42.482Z,9.70
2019-03-08T16:34:13.193Z,9.60
2019-03-08T16:36:57.883Z,9.60
2019-03-08T16:39:46.934Z,9.50
2019-03-08T16:42:34.888Z,9.50
2019-03-08T16:45:23.799Z,9.50
2019-03-08T16:48:10.057Z,9.50
2019-03-08T16:51:00.132Z,9.50
2019-03-08T16:54:06.798Z,9.50
2019-03-08T16:57:04.899Z,9.50
2019-03-08T16:59:44.289Z,9.50
2019-03-08T17:02:32.096Z,9.60
2019-03-08T17:05:27.326Z,9.60
2019-03-08T17:08:16.703Z,9.60
2019-03-08T17:11:15.016Z,9.70
2019-03-08T17:13:54.360Z,9.80
2019-03-08T17:16:33.498Z,9.80
2019-03-08T17:19:25.977Z,9.80
2019-03-08T17:22:12.510Z,9.90
2019-03-08T17:25:07.796Z,9.90
2019-03-08T17:27:55.627Z,10.00
2019-03-08T17:30:37.282Z,9.90
2019-03-08T17:33:23.187Z,9.80
2019-03-08T17:36:08.952Z,9.50
2019-03-08T17:38:47.227Z,8.90
2019-03-08T17:41:26.281Z,8.10
2019-03-08T17:44:14.533Z,7.50
2019-03-08T17:47:13.113Z,7.30
2019-03-08T17:49:55.204Z,7.20
2019-03-08T17:52:37.246Z,7.20
2019-03-08T17:55:32.629Z,7.10
2019-03-08T17:58:28.052Z,7.20
2019-03-08T18:01:09.605Z,7.20
2019-03-08T18:04:04.702Z,7.20
2019-03-08T18:06:53.941Z,7.30
2019-03-08T18:09:40.151Z,7.10
2019-03-08T18:12:44.886Z,7.40
2019-03-08T18:15:34.204Z,7.40
2019-03-08T18:18:20.435Z,7.40
2019-03-08T18:21:12.747Z,7.40
2019-03-08T18:23:59.022Z,7.40
2019-03-08T18:26:49.231Z,7.40
2019-03-08T18:29:56.902Z,7.30
2019-03-08T18:32:45.283Z,7.30
2019-03-08T18:35:40.645Z,7.30
2019-03-08T18:38:44.931Z,7.30
2019-03-08T18:41:29.574Z,7.30
2019-03-08T18:44:15.898Z,7.20
2019-03-08T18:46:55.103Z,7.20
2019-03-08T18:49:42.608Z,7.20
2019-03-08T18:52:20.926Z,7.20
2019-03-08T18:55:19.918Z,7.10
2019-03-08T18:58:08.865Z,7.10
2019-03-08T19:00:47.154Z,7.00
2019-03-08T19:03:42.567Z,7.20
2019-03-08T19:06:28.204Z,6.90
2019-03-08T19:09:16.438Z,6.90
2019-03-08T19:12:07.116Z,6.80
2019-03-08T19:14:55.141Z,6.60
2019-03-08T19:17:47.378Z,6.60
2019-03-08T19:20:45.880Z,6.40
2019-03-08T19:23:37.923Z,6.40
2019-03-08T19:26:20.912Z,6.40
2019-03-08T19:29:08.860Z,6.60
2019-03-08T19:32:01.155Z,6.60
2019-03-08T19:34:58.680Z,6.80
2019-03-08T19:37:48.045Z,6.90
2019-03-08T19:40:33.789Z,7.00
2019-03-08T19:43:21.550Z,7.20
2019-03-08T19:46:29.331Z,7.10
2019-03-08T19:49:17.737Z,7.10
2019-03-08T19:52:03.347Z,7.30
2019-03-08T19:54:54.221Z,7.20
2019-03-08T19:57:43.534Z,7.10
2019-03-08T20:00:32.650Z,7.10
2019-03-08T20:03:24.361Z,7.10
2019-03-08T20:06:19.894Z,7.00
2019-03-08T20:09:09.178Z,6.80
2019-03-08T20:12:04.307Z,6.70
2019-03-08T20:14:43.401Z,6.40
2019-03-08T20:17:44.862Z,6.30
2019-03-08T20:20:43.441Z,6.40
2019-03-08T20:23:33.277Z,6.20
2019-03-08T20:26:25.564Z,5.90
2019-03-08T20:29:10.609Z,5.80
2019-03-08T20:32:12.283Z,5.70
2019-03-08T20:34:55.109Z,5.60
2019-03-08T20:37:44.456Z,5.50
2019-03-08T20:40:35.810Z,5.40
2019-03-08T20:43:13.907Z,5.30
2019-03-08T20:46:06.408Z,5.40
2019-03-08T20:48:36.918Z,5.20
2019-03-08T20:51:07.576Z,5.20
2019-03-08T20:53:38.088Z,5.30
2019-03-08T20:56:08.547Z,5.30
2019-03-08T20:58:39.662Z,5.20
2019-03-08T21:01:10.101Z,5.10
2019-03-08T21:03:40.788Z,5.00
2019-03-08T21:06:11.286Z,4.90
2019-03-08T21:08:41.903Z,4.80
2019-03-08T21:11:12.383Z,4.80
2019-03-08T21:13:42.778Z,4.60
2019-03-08T21:16:13.382Z,4.60
2019-03-08T21:18:43.834Z,4.80
2019-03-08T21:21:14.265Z,4.60
2019-03-08T21:23:44.754Z,4.50
2019-03-08T21:26:15.149Z,4.50
2019-03-08T21:28:45.567Z,4.70
2019-03-08T21:31:16.283Z,4.60
2019-03-08T21:33:46.706Z,4.80
2019-03-08T21:36:17.166Z,4.60
2019-03-08T21:38:47.607Z,4.50
2019-03-08T21:41:18.021Z,4.40
2019-03-08T21:43:48.617Z,4.60
2019-03-08T21:46:19.281Z,4.30
2019-03-08T21:48:49.811Z,4.20
2019-03-08T21:51:21.164Z,4.20
2019-03-08T21:53:51.801Z,4.20
2019-03-08T21:56:22.304Z,4.10
2019-03-08T21:58:52.879Z,4.00
2019-03-08T22:01:23.681Z,4.20
2019-03-08T22:03:59.844Z,4.00
2019-03-08T22:06:30.686Z,4.00
2019-03-08T22:09:13.166Z,4.10
2019-03-08T22:11:44.822Z,4.10
2019-03-08T22:14:15.350Z,4.10
2019-03-08T22:16:45.795Z,3.70
2019-03-08T22:19:16.355Z,3.80
2019-03-08T22:21:46.797Z,3.90
2019-03-08T22:24:17.645Z,3.90
2019-03-08T22:26:48.161Z,3.90
2019-03-08T22:29:18.528Z,4.20
2019-03-08T22:31:48.978Z,3.90
2019-03-08T22:34:19.405Z,4.00
2019-03-08T22:36:49.852Z,3.90
2019-03-08T22:39:20.326Z,3.90
2019-03-08T22:41:50.734Z,3.40
2019-03-08T22:44:21.198Z,3.70
2019-03-08T22:46:51.651Z,3.80
2019-03-08T22:49:22.106Z,3.70
2019-03-08T22:51:52.561Z,3.60
2019-03-08T22:54:23.140Z,3.60
2019-03-08T22:56:53.603Z,3.40
2019-03-08T22:59:24.089Z,3.60
2019-03-08T23:01:57.474Z,3.40
2019-03-08T23:04:27.939Z,3.30
2019-03-08T23:06:58.343Z,3.50
2019-03-08T23:09:28.850Z,3.40
2019-03-08T23:11:59.406Z,3.10
2019-03-08T23:14:29.975Z,3.40
2019-03-08T23:17:00.409Z,3.00
2019-03-08T23:19:30.839Z,3.20
2019-03-08T23:22:01.377Z,2.90
2019-03-08T23:24:31.793Z,3.20
2019-03-08T23:27:21.941Z,2.90
2019-03-08T23:29:58.226Z,2.90
2019-03-08T23:32:34.378Z,3.00
2019-03-08T23:35:05.224Z,3.00
2019-03-08T23:37:35.651Z,2.90
2019-03-08T23:40:06.977Z,2.90
2019-03-08T23:42:37.393Z,3.20
2019-03-08T23:45:08.319Z,2.90
2019-03-08T23:47:38.877Z,2.80
2019-03-08T23:50:10.062Z,2.90
2019-03-08T23:52:40.847Z,3.10
2019-03-08T23:55:11.867Z,3.00
2019-03-08T23:57:42.261Z,3.10
